UAL783 KDEN-MMMX
Flight info
| Callsign | UAL783 |
|---|---|
| Flight time | N/A |
| Altitude | 35000 |
| Route | SABTH2 VRONI DCT KENTO DCT LBB DCT BGS DCT DOGEY DCT DENSE DCT PNG UJ45 MTY UJ81 KERGA UT132 DARAN DARAN3A |
| Aircraft | B738/M-SDE2E3FGHIRWXY/LB1 |
Departure
| Time | 2026-05-07 22:19 |
|---|---|
| Airport | Denver International Airport (KDEN) |
Arrival
| Time | N/A |
|---|---|
| Airport | Mexico City Benito Juárez International Airport (MMMX) |
| Time | Latitude | Longitude | Altitude | Speed | Heading |
|---|---|---|---|---|---|
| 2026-05-07 22:04 | 39.86254 | -104.67786 | 5365 ft | 0 kts | 359° |
| 2026-05-07 22:11 | 39.86241 | -104.67786 | 5366 ft | 2 kts | 359° |
| 2026-05-07 22:11 | 39.86227 | -104.67786 | 5367 ft | 2 kts | 359° |
| 2026-05-07 22:11 | 39.86211 | -104.67785 | 5367 ft | 2 kts | 359° |
| 2026-05-07 22:12 | 39.86196 | -104.67785 | 5368 ft | 2 kts | 359° |
| 2026-05-07 22:12 | 39.86181 | -104.67785 | 5369 ft | 2 kts | 359° |
| 2026-05-07 22:12 | 39.86166 | -104.67784 | 5369 ft | 2 kts | 359° |
| 2026-05-07 22:12 | 39.86157 | -104.67784 | 5369 ft | 2 kts | 358° |
| 2026-05-07 22:13 | 39.86143 | -104.67777 | 5370 ft | 2 kts | 316° |
| 2026-05-07 22:13 | 39.86135 | -104.67761 | 5372 ft | 2 kts | 283° |
| 2026-05-07 22:13 | 39.86134 | -104.67752 | 5372 ft | 1 kts | 265° |
| 2026-05-07 22:13 | 39.86134 | -104.67747 | 5372 ft | 0 kts | 269° |
| 2026-05-07 22:14 | 39.86134 | -104.67752 | 5372 ft | 2 kts | 269° |
| 2026-05-07 22:15 | 39.86135 | -104.67812 | 5369 ft | 9 kts | 270° |
| 2026-05-07 22:15 | 39.86136 | -104.67914 | 5363 ft | 13 kts | 271° |
| 2026-05-07 22:15 | 39.86139 | -104.68055 | 5353 ft | 18 kts | 271° |
| 2026-05-07 22:15 | 39.86147 | -104.68242 | 5341 ft | 22 kts | 274° |
| 2026-05-07 22:16 | 39.86165 | -104.68462 | 5328 ft | 26 kts | 277° |
| 2026-05-07 22:16 | 39.86231 | -104.68520 | 5325 ft | 9 kts | 12° |
| 2026-05-07 22:16 | 39.86283 | -104.68510 | 5325 ft | 5 kts | 0° |
| 2026-05-07 22:16 | 39.86334 | -104.68509 | 5325 ft | 9 kts | 0° |
| 2026-05-07 22:17 | 39.86391 | -104.68508 | 5326 ft | 6 kts | 358° |
| 2026-05-07 22:17 | 39.86427 | -104.68550 | 5326 ft | 8 kts | 282° |
| 2026-05-07 22:17 | 39.86427 | -104.68639 | 5321 ft | 11 kts | 270° |
| 2026-05-07 22:17 | 39.86454 | -104.68718 | 5319 ft | 7 kts | 1° |
| 2026-05-07 22:18 | 39.86492 | -104.68720 | 5320 ft | 6 kts | 358° |
| 2026-05-07 22:18 | 39.87410 | -104.68710 | 5345 ft | 122 kts | 0° |
| 2026-05-07 22:18 | 39.88440 | -104.68697 | 5361 ft | 169 kts | 0° |
| 2026-05-07 22:19 | 39.89708 | -104.68691 | 5549 ft | 191 kts | 354° |
| 2026-05-07 22:19 | 39.91057 | -104.68639 | 6096 ft | 201 kts | 10° |
| 2026-05-07 22:19 | 39.92271 | -104.67515 | 6349 ft | 237 kts | 48° |
| 2026-05-07 22:19 | 39.92848 | -104.65563 | 7189 ft | 232 kts | 86° |
| 2026-05-07 22:20 | 39.92548 | -104.63556 | 7754 ft | 231 kts | 116° |
| 2026-05-07 22:20 | 39.91559 | -104.61867 | 8005 ft | 241 kts | 146° |
| 2026-05-07 22:20 | 39.90044 | -104.60968 | 8300 ft | 248 kts | 175° |
| 2026-05-07 22:20 | 39.88275 | -104.60823 | 8604 ft | 263 kts | 182° |
| 2026-05-07 22:21 | 39.86521 | -104.60802 | 8943 ft | 278 kts | 182° |
| 2026-05-07 22:21 | 39.85206 | -104.60768 | 9248 ft | 286 kts | 181° |
| 2026-05-07 22:21 | 39.83155 | -104.60664 | 9647 ft | 301 kts | 179° |
| 2026-05-07 22:21 | 39.81076 | -104.60521 | 10289 ft | 305 kts | 179° |
| 2026-05-07 22:22 | 39.78900 | -104.60369 | 10587 ft | 323 kts | 179° |
| 2026-05-07 22:22 | 39.76595 | -104.60218 | 10967 ft | 337 kts | 179° |
| 2026-05-07 22:22 | 39.74207 | -104.60068 | 11281 ft | 353 kts | 179° |
| 2026-05-07 22:22 | 39.71701 | -104.59911 | 11620 ft | 368 kts | 179° |
| 2026-05-07 22:23 | 39.69072 | -104.59748 | 11915 ft | 384 kts | 179° |
| 2026-05-07 22:23 | 39.66352 | -104.59580 | 12302 ft | 396 kts | 179° |
| 2026-05-07 22:23 | 39.63579 | -104.59405 | 12973 ft | 399 kts | 179° |
| 2026-05-07 22:23 | 39.60813 | -104.59228 | 13635 ft | 403 kts | 179° |
| 2026-05-07 22:24 | 39.58011 | -104.59046 | 14286 ft | 407 kts | 179° |
| 2026-05-07 22:24 | 39.55143 | -104.58866 | 14979 ft | 412 kts | 180° |
| 2026-05-07 22:24 | 39.52291 | -104.58689 | 15660 ft | 417 kts | 180° |
| 2026-05-07 22:24 | 39.49395 | -104.58507 | 16414 ft | 419 kts | 180° |
| 2026-05-07 22:25 | 39.46449 | -104.58321 | 17065 ft | 424 kts | 180° |
| 2026-05-07 22:25 | 39.43487 | -104.58133 | 17712 ft | 428 kts | 180° |
| 2026-05-07 22:25 | 39.40520 | -104.57945 | 18364 ft | 433 kts | 180° |
| 2026-05-07 22:25 | 39.37494 | -104.57755 | 19008 ft | 437 kts | 180° |
| 2026-05-07 22:26 | 39.34470 | -104.57561 | 19609 ft | 442 kts | 181° |
| 2026-05-07 22:26 | 39.31383 | -104.57367 | 20282 ft | 444 kts | 181° |
| 2026-05-07 22:26 | 39.28268 | -104.57171 | 20833 ft | 450 kts | 181° |
| 2026-05-07 22:26 | 39.25160 | -104.56976 | 21371 ft | 455 kts | 181° |
| 2026-05-07 22:27 | 39.21977 | -104.56780 | 22008 ft | 457 kts | 181° |
| 2026-05-07 22:27 | 39.18767 | -104.56582 | 22444 ft | 464 kts | 181° |
| 2026-05-07 22:27 | 39.15581 | -104.56383 | 23025 ft | 467 kts | 181° |
| 2026-05-07 22:27 | 39.12300 | -104.56176 | 23520 ft | 472 kts | 180° |
| 2026-05-07 22:28 | 39.09023 | -104.55930 | 24150 ft | 473 kts | 179° |
| 2026-05-07 22:28 | 39.05732 | -104.55545 | 24525 ft | 481 kts | 177° |
| 2026-05-07 22:28 | 39.02385 | -104.55043 | 25050 ft | 484 kts | 176° |
| 2026-05-07 22:28 | 38.99030 | -104.54491 | 25442 ft | 489 kts | 175° |
| 2026-05-07 22:29 | 38.95660 | -104.53926 | 25991 ft | 491 kts | 176° |
| 2026-05-07 22:29 | 38.92279 | -104.53375 | 26404 ft | 494 kts | 176° |
| 2026-05-07 22:29 | 38.88843 | -104.52837 | 26844 ft | 497 kts | 176° |
| 2026-05-07 22:29 | 38.85424 | -104.52313 | 27281 ft | 500 kts | 177° |
| 2026-05-07 22:30 | 38.81967 | -104.51792 | 27657 ft | 503 kts | 177° |
| 2026-05-07 22:30 | 38.78463 | -104.51265 | 28104 ft | 505 kts | 177° |
| 2026-05-07 22:30 | 38.75024 | -104.50740 | 28834 ft | 500 kts | 177° |
| 2026-05-07 22:30 | 38.71608 | -104.50223 | 29574 ft | 494 kts | 177° |
| 2026-05-07 22:31 | 38.68198 | -104.49717 | 30155 ft | 492 kts | 177° |
| 2026-05-07 22:31 | 38.64818 | -104.49221 | 30624 ft | 493 kts | 177° |
| 2026-05-07 22:31 | 38.61388 | -104.48724 | 31012 ft | 495 kts | 177° |
| 2026-05-07 22:31 | 38.57978 | -104.48231 | 31508 ft | 494 kts | 177° |
| 2026-05-07 22:32 | 38.54580 | -104.47740 | 31988 ft | 494 kts | 177° |
| 2026-05-07 22:32 | 38.51163 | -104.47128 | 32440 ft | 495 kts | 174° |
| 2026-05-07 22:32 | 38.47813 | -104.46216 | 32764 ft | 501 kts | 168° |
| 2026-05-07 22:32 | 38.44427 | -104.44842 | 33230 ft | 502 kts | 162° |
| 2026-05-07 22:33 | 38.41179 | -104.43058 | 33651 ft | 504 kts | 155° |
| 2026-05-07 22:33 | 38.38114 | -104.40911 | 34111 ft | 504 kts | 150° |
| 2026-05-07 22:33 | 38.35128 | -104.38464 | 34582 ft | 503 kts | 147° |
| 2026-05-07 22:33 | 38.32252 | -104.35928 | 35049 ft | 501 kts | 146° |
| 2026-05-07 22:34 | 38.29319 | -104.33308 | 35077 ft | 504 kts | 147° |
| 2026-05-07 22:34 | 38.23501 | -104.28227 | 35082 ft | 499 kts | 148° |
| 2026-05-07 22:35 | 38.17728 | -104.23405 | 35093 ft | 494 kts | 149° |
| 2026-05-07 22:35 | 38.11885 | -104.18645 | 35083 ft | 497 kts | 149° |
| 2026-05-07 22:36 | 38.06030 | -104.13924 | 35081 ft | 495 kts | 149° |
| 2026-05-07 22:36 | 38.00218 | -104.09257 | 35069 ft | 492 kts | 150° |
| 2026-05-07 22:37 | 37.94435 | -104.04624 | 35057 ft | 495 kts | 150° |
| 2026-05-07 22:37 | 37.88629 | -103.99970 | 35060 ft | 493 kts | 149° |
| 2026-05-07 22:38 | 37.82870 | -103.95358 | 35065 ft | 492 kts | 149° |
| 2026-05-07 22:38 | 37.77077 | -103.90734 | 34986 ft | 492 kts | 149° |
| 2026-05-07 22:39 | 37.71281 | -103.86115 | 35076 ft | 494 kts | 150° |
| 2026-05-07 22:39 | 37.65485 | -103.81504 | 35082 ft | 491 kts | 150° |
| 2026-05-07 22:40 | 37.59755 | -103.76945 | 35087 ft | 489 kts | 150° |
| 2026-05-07 22:40 | 37.53991 | -103.72380 | 35095 ft | 490 kts | 150° |
| 2026-05-07 22:41 | 37.48247 | -103.67838 | 35106 ft | 489 kts | 150° |
| 2026-05-07 22:41 | 37.42468 | -103.63284 | 35108 ft | 488 kts | 150° |
| 2026-05-07 22:42 | 37.36724 | -103.58759 | 35116 ft | 490 kts | 150° |
| 2026-05-07 22:42 | 37.30949 | -103.54211 | 35116 ft | 488 kts | 150° |
| 2026-05-07 22:43 | 37.25229 | -103.49718 | 35123 ft | 485 kts | 150° |
| 2026-05-07 22:43 | 37.19519 | -103.45261 | 35133 ft | 484 kts | 150° |
| 2026-05-07 22:44 | 37.13804 | -103.40818 | 35120 ft | 485 kts | 150° |
| 2026-05-07 22:44 | 37.08063 | -103.36362 | 35118 ft | 483 kts | 150° |
| 2026-05-07 22:45 | 37.02349 | -103.31935 | 35102 ft | 483 kts | 151° |
| 2026-05-07 22:45 | 36.96673 | -103.27544 | 35105 ft | 483 kts | 151° |
| 2026-05-07 22:46 | 36.90944 | -103.23113 | 35157 ft | 482 kts | 152° |
| 2026-05-07 22:46 | 36.85275 | -103.18745 | 35103 ft | 478 kts | 152° |
| 2026-05-07 22:47 | 36.79619 | -103.14384 | 35105 ft | 480 kts | 152° |
| 2026-05-07 22:47 | 36.73857 | -103.10187 | 35102 ft | 477 kts | 157° |
| 2026-05-07 22:48 | 36.67758 | -103.07085 | 35091 ft | 472 kts | 165° |
| 2026-05-07 22:48 | 36.61534 | -103.04632 | 35095 ft | 467 kts | 167° |
| 2026-05-07 22:49 | 36.55291 | -103.02247 | 35079 ft | 466 kts | 167° |
| 2026-05-07 22:49 | 36.49114 | -102.99839 | 35073 ft | 465 kts | 167° |
| 2026-05-07 22:50 | 36.42940 | -102.97395 | 35073 ft | 465 kts | 167° |
| 2026-05-07 22:50 | 36.36801 | -102.94945 | 35067 ft | 467 kts | 167° |
| 2026-05-07 22:51 | 36.30635 | -102.92471 | 35073 ft | 464 kts | 167° |
| 2026-05-07 22:51 | 36.24469 | -102.89995 | 35071 ft | 464 kts | 167° |
| 2026-05-07 22:52 | 36.18378 | -102.87549 | 35074 ft | 460 kts | 167° |
| 2026-05-07 22:52 | 36.12295 | -102.85116 | 35077 ft | 459 kts | 167° |
| 2026-05-07 22:53 | 36.06198 | -102.82686 | 35068 ft | 460 kts | 167° |
| 2026-05-07 22:53 | 36.00134 | -102.80263 | 35069 ft | 459 kts | 167° |
| 2026-05-07 22:54 | 35.94066 | -102.77846 | 35070 ft | 458 kts | 167° |
| 2026-05-07 22:54 | 35.87990 | -102.75432 | 35065 ft | 458 kts | 167° |
| 2026-05-07 22:55 | 35.81949 | -102.73032 | 35055 ft | 457 kts | 168° |
| 2026-05-07 22:55 | 35.75910 | -102.70634 | 35067 ft | 455 kts | 168° |
| 2026-05-07 22:56 | 35.69893 | -102.68259 | 35062 ft | 456 kts | 168° |
| 2026-05-07 22:56 | 35.63874 | -102.65882 | 35060 ft | 453 kts | 169° |
| 2026-05-07 22:57 | 35.57859 | -102.63506 | 35061 ft | 451 kts | 169° |
| 2026-05-07 22:57 | 35.51907 | -102.61162 | 35058 ft | 451 kts | 169° |
| 2026-05-07 22:58 | 35.45961 | -102.58827 | 35056 ft | 452 kts | 170° |
| 2026-05-07 22:58 | 35.39962 | -102.56475 | 35064 ft | 450 kts | 170° |
| 2026-05-07 22:59 | 35.34018 | -102.54144 | 35066 ft | 450 kts | 170° |
| 2026-05-07 22:59 | 35.28076 | -102.51817 | 35073 ft | 448 kts | 171° |
| 2026-05-07 23:00 | 35.22130 | -102.49493 | 35070 ft | 444 kts | 171° |
| 2026-05-07 23:00 | 35.16279 | -102.47205 | 35074 ft | 444 kts | 171° |
| 2026-05-07 23:01 | 35.10389 | -102.44908 | 35077 ft | 443 kts | 171° |
| 2026-05-07 23:01 | 35.04547 | -102.42638 | 35068 ft | 441 kts | 172° |
| 2026-05-07 23:02 | 34.98720 | -102.40370 | 35075 ft | 438 kts | 172° |
| 2026-05-07 23:02 | 34.92877 | -102.38116 | 35073 ft | 441 kts | 172° |
| 2026-05-07 23:03 | 34.87057 | -102.35867 | 35087 ft | 439 kts | 172° |
| 2026-05-07 23:03 | 34.81249 | -102.33616 | 35087 ft | 436 kts | 173° |
| 2026-05-07 23:04 | 34.75469 | -102.31387 | 35079 ft | 438 kts | 173° |
| 2026-05-07 23:04 | 34.69697 | -102.29160 | 35079 ft | 434 kts | 173° |
| 2026-05-07 23:05 | 34.63918 | -102.26933 | 35082 ft | 435 kts | 173° |
| 2026-05-07 23:05 | 34.58168 | -102.24723 | 35080 ft | 434 kts | 173° |
| 2026-05-07 23:06 | 34.52448 | -102.22527 | 35087 ft | 433 kts | 173° |
| 2026-05-07 23:06 | 34.46698 | -102.20324 | 35084 ft | 432 kts | 173° |
| 2026-05-07 23:07 | 34.41003 | -102.18143 | 35084 ft | 431 kts | 173° |
| 2026-05-07 23:07 | 34.35251 | -102.15951 | 35078 ft | 432 kts | 173° |
| 2026-05-07 23:08 | 34.29581 | -102.13783 | 35078 ft | 427 kts | 173° |
| 2026-05-07 23:08 | 34.23888 | -102.11610 | 35080 ft | 431 kts | 173° |
| 2026-05-07 23:09 | 34.18144 | -102.09431 | 35077 ft | 430 kts | 173° |
| 2026-05-07 23:09 | 34.12474 | -102.07273 | 35077 ft | 427 kts | 174° |
| 2026-05-07 23:10 | 34.06791 | -102.05122 | 35076 ft | 429 kts | 173° |
| 2026-05-07 23:10 | 34.01131 | -102.02973 | 35080 ft | 423 kts | 174° |
| 2026-05-07 23:11 | 33.95517 | -102.00851 | 35073 ft | 427 kts | 174° |
| 2026-05-07 23:11 | 33.89838 | -101.98714 | 35067 ft | 427 kts | 174° |
| 2026-05-07 23:12 | 33.84203 | -101.96574 | 35059 ft | 424 kts | 174° |
| 2026-05-07 23:12 | 33.78573 | -101.94447 | 35064 ft | 422 kts | 174° |
| 2026-05-07 23:13 | 33.72967 | -101.92362 | 35065 ft | 425 kts | 174° |
| 2026-05-07 23:13 | 33.67291 | -101.90293 | 35063 ft | 424 kts | 175° |
| 2026-05-07 23:14 | 33.61635 | -101.88410 | 35073 ft | 420 kts | 176° |
| 2026-05-07 23:14 | 33.55988 | -101.86585 | 35067 ft | 420 kts | 176° |
| 2026-05-07 23:15 | 33.50350 | -101.84745 | 35065 ft | 420 kts | 176° |
| 2026-05-07 23:15 | 33.44693 | -101.82894 | 35059 ft | 421 kts | 176° |
| 2026-05-07 23:16 | 33.39104 | -101.81052 | 35055 ft | 416 kts | 176° |
| 2026-05-07 23:16 | 33.33481 | -101.79208 | 35055 ft | 418 kts | 176° |
| 2026-05-07 23:17 | 33.27880 | -101.77370 | 35054 ft | 417 kts | 176° |
| 2026-05-07 23:17 | 33.22329 | -101.75545 | 35057 ft | 416 kts | 176° |
| 2026-05-07 23:18 | 33.16749 | -101.73717 | 35058 ft | 414 kts | 176° |
| 2026-05-07 23:18 | 33.11190 | -101.71908 | 35058 ft | 415 kts | 176° |
| 2026-05-07 23:19 | 33.05608 | -101.70087 | 35056 ft | 415 kts | 176° |
| 2026-05-07 23:19 | 33.00064 | -101.68274 | 35055 ft | 413 kts | 176° |
| 2026-05-07 23:20 | 32.94480 | -101.66461 | 35054 ft | 414 kts | 176° |
| 2026-05-07 23:20 | 32.88945 | -101.64661 | 35054 ft | 414 kts | 176° |
| 2026-05-07 23:21 | 32.83369 | -101.62853 | 35052 ft | 416 kts | 176° |
| 2026-05-07 23:21 | 32.77769 | -101.61037 | 35048 ft | 413 kts | 176° |
| 2026-05-07 23:22 | 32.72269 | -101.59249 | 35047 ft | 412 kts | 176° |
| 2026-05-07 23:22 | 32.66701 | -101.57455 | 35046 ft | 414 kts | 176° |
| 2026-05-07 23:23 | 32.61160 | -101.55664 | 35045 ft | 412 kts | 176° |
| 2026-05-07 23:23 | 32.55623 | -101.53879 | 35045 ft | 413 kts | 176° |
| 2026-05-07 23:24 | 32.50119 | -101.52094 | 35046 ft | 411 kts | 176° |
| 2026-05-07 23:24 | 32.44575 | -101.50285 | 35046 ft | 414 kts | 176° |
| 2026-05-07 23:25 | 32.39045 | -101.48514 | 35046 ft | 412 kts | 177° |
| 2026-05-07 23:25 | 32.33494 | -101.47113 | 35044 ft | 404 kts | 181° |
| 2026-05-07 23:26 | 32.28009 | -101.46041 | 35045 ft | 400 kts | 181° |
| 2026-05-07 23:26 | 32.22504 | -101.44954 | 35048 ft | 404 kts | 181° |
| 2026-05-07 23:27 | 32.14155 | -101.43247 | 35046 ft | 406 kts | 180° |
| 2026-05-07 23:27 | 32.08605 | -101.42084 | 35044 ft | 405 kts | 181° |
| 2026-05-07 23:28 | 32.03037 | -101.40906 | 35043 ft | 405 kts | 180° |
| 2026-05-07 23:28 | 31.97528 | -101.39745 | 35045 ft | 404 kts | 181° |
| 2026-05-07 23:29 | 31.92001 | -101.38597 | 35045 ft | 402 kts | 181° |
| 2026-05-07 23:29 | 31.86430 | -101.37450 | 35049 ft | 408 kts | 181° |
| 2026-05-07 23:30 | 31.80842 | -101.36298 | 35050 ft | 407 kts | 181° |
| 2026-05-07 23:30 | 31.75315 | -101.35139 | 35053 ft | 404 kts | 181° |
| 2026-05-07 23:31 | 31.69701 | -101.33986 | 35053 ft | 411 kts | 181° |
| 2026-05-07 23:31 | 31.64104 | -101.32831 | 35050 ft | 410 kts | 180° |
| 2026-05-07 23:32 | 31.58516 | -101.31660 | 35052 ft | 407 kts | 181° |
| 2026-05-07 23:32 | 31.52902 | -101.30502 | 35047 ft | 408 kts | 181° |
| 2026-05-07 23:33 | 31.47342 | -101.29349 | 35048 ft | 406 kts | 180° |
| 2026-05-07 23:33 | 31.41774 | -101.28187 | 35052 ft | 408 kts | 181° |
| 2026-05-07 23:34 | 31.36124 | -101.27036 | 35050 ft | 412 kts | 180° |
| 2026-05-07 23:34 | 31.30506 | -101.25884 | 35049 ft | 408 kts | 180° |
| 2026-05-07 23:35 | 31.24879 | -101.24730 | 35054 ft | 412 kts | 181° |
| 2026-05-07 23:35 | 31.19203 | -101.23544 | 35053 ft | 413 kts | 181° |
| 2026-05-07 23:36 | 31.13542 | -101.22362 | 35060 ft | 412 kts | 180° |
| 2026-05-07 23:36 | 31.07895 | -101.21195 | 35057 ft | 413 kts | 180° |
| 2026-05-07 23:37 | 31.02220 | -101.20051 | 35057 ft | 412 kts | 181° |
| 2026-05-07 23:37 | 30.96569 | -101.18918 | 35054 ft | 415 kts | 181° |
| 2026-05-07 23:38 | 30.90833 | -101.17751 | 35059 ft | 418 kts | 180° |
| 2026-05-07 23:38 | 30.85122 | -101.16563 | 35056 ft | 415 kts | 180° |
| 2026-05-07 23:39 | 30.79389 | -101.15404 | 35051 ft | 418 kts | 180° |
| 2026-05-07 23:39 | 30.73677 | -101.14252 | 35040 ft | 414 kts | 181° |
| 2026-05-07 23:40 | 30.68005 | -101.13101 | 35044 ft | 417 kts | 180° |
| 2026-05-07 23:40 | 30.62244 | -101.11927 | 35053 ft | 419 kts | 180° |
| 2026-05-07 23:41 | 30.56527 | -101.10750 | 35045 ft | 417 kts | 180° |
| 2026-05-07 23:41 | 30.50802 | -101.09607 | 35043 ft | 419 kts | 180° |
| 2026-05-07 23:42 | 30.45044 | -101.08444 | 35038 ft | 419 kts | 179° |
| 2026-05-07 23:42 | 30.39360 | -101.06733 | 35036 ft | 427 kts | 173° |
| 2026-05-07 23:43 | 30.33651 | -101.04514 | 35030 ft | 433 kts | 171° |
| 2026-05-07 23:43 | 30.27996 | -101.02306 | 35029 ft | 428 kts | 172° |
| 2026-05-07 23:44 | 30.22304 | -101.00172 | 35029 ft | 431 kts | 172° |
| 2026-05-07 23:44 | 30.16570 | -100.98061 | 35027 ft | 431 kts | 172° |
| 2026-05-07 23:45 | 30.10896 | -100.95975 | 35017 ft | 430 kts | 173° |
| 2026-05-07 23:45 | 30.05163 | -100.93861 | 35012 ft | 433 kts | 172° |
| 2026-05-07 23:46 | 29.99418 | -100.91749 | 35005 ft | 431 kts | 172° |
| 2026-05-07 23:46 | 29.93750 | -100.89659 | 35004 ft | 430 kts | 172° |
| 2026-05-07 23:47 | 29.87985 | -100.87549 | 35001 ft | 434 kts | 173° |
| 2026-05-07 23:47 | 29.82260 | -100.85459 | 35001 ft | 432 kts | 172° |
| 2026-05-07 23:48 | 29.76575 | -100.83370 | 35003 ft | 429 kts | 173° |
| 2026-05-07 23:48 | 29.70875 | -100.81299 | 35001 ft | 429 kts | 173° |
| 2026-05-07 23:49 | 29.65108 | -100.79221 | 34996 ft | 432 kts | 173° |
| 2026-05-07 23:49 | 29.59398 | -100.77146 | 34995 ft | 433 kts | 172° |
| 2026-05-07 23:50 | 29.53684 | -100.75066 | 34994 ft | 430 kts | 172° |
| 2026-05-07 23:50 | 29.47938 | -100.72986 | 34982 ft | 431 kts | 172° |
| 2026-05-07 23:51 | 29.42234 | -100.70921 | 34978 ft | 431 kts | 172° |
| 2026-05-07 23:51 | 29.36471 | -100.68835 | 34972 ft | 433 kts | 172° |
| 2026-05-07 23:52 | 29.30694 | -100.66749 | 34975 ft | 434 kts | 172° |
| 2026-05-07 23:52 | 29.24973 | -100.64676 | 34975 ft | 431 kts | 173° |
| 2026-05-07 23:53 | 29.19237 | -100.62656 | 34978 ft | 426 kts | 175° |
| 2026-05-07 23:53 | 29.13464 | -100.61335 | 34974 ft | 420 kts | 181° |
| 2026-05-07 23:54 | 29.07670 | -100.60475 | 34965 ft | 414 kts | 182° |
| 2026-05-07 23:54 | 29.01910 | -100.59689 | 34970 ft | 419 kts | 182° |
| 2026-05-07 23:55 | 28.96117 | -100.58839 | 34966 ft | 420 kts | 182° |
| 2026-05-07 23:55 | 28.90330 | -100.57959 | 34970 ft | 416 kts | 182° |
| 2026-05-07 23:56 | 28.84554 | -100.57085 | 34970 ft | 418 kts | 182° |
| 2026-05-07 23:56 | 28.78786 | -100.56216 | 34974 ft | 419 kts | 182° |
| 2026-05-07 23:57 | 28.72969 | -100.55330 | 34970 ft | 419 kts | 182° |
| 2026-05-07 23:57 | 28.67177 | -100.54463 | 34978 ft | 420 kts | 182° |
| 2026-05-07 23:58 | 28.61414 | -100.53590 | 34976 ft | 418 kts | 181° |
| 2026-05-07 23:58 | 28.55629 | -100.52689 | 34975 ft | 420 kts | 181° |
| 2026-05-07 23:59 | 28.49845 | -100.51769 | 34973 ft | 417 kts | 181° |
| 2026-05-07 23:59 | 28.44066 | -100.50874 | 34971 ft | 422 kts | 181° |
| 2026-05-08 00:00 | 28.38220 | -100.49970 | 34964 ft | 421 kts | 182° |
| 2026-05-08 00:00 | 28.32432 | -100.49071 | 34961 ft | 420 kts | 181° |
| 2026-05-08 00:01 | 28.26602 | -100.48159 | 34953 ft | 421 kts | 181° |
| 2026-05-08 00:01 | 28.20799 | -100.47259 | 34953 ft | 421 kts | 181° |
| 2026-05-08 00:02 | 28.14998 | -100.46364 | 34952 ft | 421 kts | 181° |
| 2026-05-08 00:02 | 28.09149 | -100.45463 | 34953 ft | 424 kts | 181° |
| 2026-05-08 00:03 | 28.03339 | -100.44561 | 34955 ft | 420 kts | 181° |
| 2026-05-08 00:03 | 27.97517 | -100.43669 | 34957 ft | 421 kts | 181° |
| 2026-05-08 00:04 | 27.91666 | -100.42765 | 34944 ft | 422 kts | 181° |
| 2026-05-08 00:04 | 27.85869 | -100.41874 | 34948 ft | 421 kts | 181° |
| 2026-05-08 00:05 | 27.80060 | -100.40989 | 34945 ft | 422 kts | 180° |
| 2026-05-08 00:05 | 27.74261 | -100.40099 | 34947 ft | 421 kts | 181° |
| 2026-05-08 00:06 | 27.68460 | -100.39214 | 34940 ft | 423 kts | 181° |
| 2026-05-08 00:06 | 27.62596 | -100.38313 | 34937 ft | 420 kts | 180° |
| 2026-05-08 00:07 | 27.56814 | -100.37421 | 34938 ft | 422 kts | 180° |
| 2026-05-08 00:07 | 27.50972 | -100.36537 | 34922 ft | 424 kts | 180° |
| 2026-05-08 00:08 | 27.45123 | -100.35641 | 34919 ft | 421 kts | 180° |
| 2026-05-08 00:08 | 27.39325 | -100.34759 | 34908 ft | 425 kts | 180° |
| 2026-05-08 00:09 | 27.33484 | -100.33862 | 34909 ft | 420 kts | 180° |
| 2026-05-08 00:09 | 27.27643 | -100.32976 | 34906 ft | 422 kts | 180° |
| 2026-05-08 00:10 | 27.21817 | -100.32098 | 34911 ft | 426 kts | 180° |
| 2026-05-08 00:10 | 27.15937 | -100.31198 | 34912 ft | 423 kts | 180° |
| 2026-05-08 00:11 | 27.10090 | -100.30303 | 34908 ft | 425 kts | 179° |
| 2026-05-08 00:11 | 27.04237 | -100.29401 | 34914 ft | 424 kts | 179° |
| 2026-05-08 00:12 | 26.98380 | -100.28516 | 34921 ft | 425 kts | 180° |
| 2026-05-08 00:12 | 26.92515 | -100.27644 | 34921 ft | 426 kts | 180° |
| 2026-05-08 00:13 | 26.86618 | -100.26753 | 34923 ft | 424 kts | 179° |
| 2026-05-08 00:13 | 26.80759 | -100.25866 | 34927 ft | 423 kts | 180° |
| 2026-05-08 00:14 | 26.74921 | -100.24992 | 34932 ft | 427 kts | 180° |
| 2026-05-08 00:14 | 26.69025 | -100.24103 | 34938 ft | 423 kts | 179° |
| 2026-05-08 00:15 | 26.63202 | -100.23219 | 34939 ft | 425 kts | 180° |
| 2026-05-08 00:15 | 26.57320 | -100.22338 | 34938 ft | 427 kts | 180° |
| 2026-05-08 00:16 | 26.51420 | -100.21468 | 34939 ft | 427 kts | 180° |
| 2026-05-08 00:16 | 26.45521 | -100.20589 | 34945 ft | 427 kts | 180° |
| 2026-05-08 00:17 | 26.39615 | -100.19695 | 34964 ft | 427 kts | 179° |
| 2026-05-08 00:17 | 26.33712 | -100.18810 | 34975 ft | 428 kts | 180° |
| 2026-05-08 00:18 | 26.27820 | -100.17925 | 34985 ft | 427 kts | 180° |
| 2026-05-08 00:18 | 26.21910 | -100.17046 | 34996 ft | 427 kts | 180° |
| 2026-05-08 00:19 | 26.15981 | -100.16161 | 34988 ft | 429 kts | 180° |
| 2026-05-08 00:19 | 26.10070 | -100.15279 | 34985 ft | 427 kts | 180° |
| 2026-05-08 00:20 | 26.04189 | -100.14404 | 34973 ft | 426 kts | 180° |
| 2026-05-08 00:20 | 25.98285 | -100.13526 | 34972 ft | 429 kts | 180° |
| 2026-05-08 00:21 | 25.92365 | -100.12646 | 34965 ft | 429 kts | 180° |
| 2026-05-08 00:21 | 25.86461 | -100.11770 | 34959 ft | 428 kts | 179° |
| 2026-05-08 00:22 | 25.80523 | -100.10892 | 34966 ft | 430 kts | 179° |
| 2026-05-08 00:22 | 25.74604 | -100.10033 | 34956 ft | 429 kts | 180° |
| 2026-05-08 00:23 | 25.68676 | -100.09305 | 34960 ft | 429 kts | 181° |
| 2026-05-08 00:23 | 25.62726 | -100.08621 | 34973 ft | 428 kts | 180° |
| 2026-05-08 00:24 | 25.56827 | -100.07925 | 34994 ft | 428 kts | 180° |
| 2026-05-08 00:24 | 25.50884 | -100.07218 | 35004 ft | 428 kts | 180° |
| 2026-05-08 00:25 | 25.44939 | -100.06509 | 35021 ft | 430 kts | 180° |
| 2026-05-08 00:25 | 25.39018 | -100.05798 | 35041 ft | 429 kts | 180° |
| 2026-05-08 00:26 | 25.33072 | -100.05083 | 35047 ft | 430 kts | 180° |
| 2026-05-08 00:26 | 25.27109 | -100.04371 | 35062 ft | 432 kts | 180° |
| 2026-05-08 00:27 | 25.21115 | -100.03653 | 35078 ft | 432 kts | 180° |
| 2026-05-08 00:27 | 25.15171 | -100.02942 | 35100 ft | 430 kts | 180° |
| 2026-05-08 00:28 | 25.09190 | -100.02228 | 35133 ft | 434 kts | 180° |
| 2026-05-08 00:28 | 25.03179 | -100.01515 | 35167 ft | 432 kts | 179° |
| 2026-05-08 00:29 | 24.97235 | -100.00805 | 35197 ft | 431 kts | 180° |
| 2026-05-08 00:29 | 24.91250 | -100.00161 | 35198 ft | 430 kts | 181° |
| 2026-05-08 00:30 | 24.85259 | -99.99813 | 35202 ft | 429 kts | 183° |
| 2026-05-08 00:30 | 24.79317 | -99.99535 | 35205 ft | 427 kts | 183° |
| 2026-05-08 00:31 | 24.73378 | -99.99233 | 35209 ft | 429 kts | 182° |
| 2026-05-08 00:31 | 24.67394 | -99.98914 | 35222 ft | 429 kts | 182° |
| 2026-05-08 00:32 | 24.61420 | -99.98581 | 35241 ft | 428 kts | 182° |
| 2026-05-08 00:32 | 24.55489 | -99.98252 | 35280 ft | 429 kts | 182° |
| 2026-05-08 00:33 | 24.49504 | -99.97917 | 35309 ft | 430 kts | 182° |
| 2026-05-08 00:33 | 24.43540 | -99.97577 | 35302 ft | 428 kts | 182° |
| 2026-05-08 00:34 | 24.37572 | -99.97238 | 35272 ft | 429 kts | 182° |
| 2026-05-08 00:34 | 24.31612 | -99.96896 | 35252 ft | 426 kts | 182° |
| 2026-05-08 00:35 | 24.25658 | -99.96549 | 35228 ft | 429 kts | 182° |
| 2026-05-08 00:35 | 24.19706 | -99.96200 | 35206 ft | 427 kts | 182° |
| 2026-05-08 00:36 | 24.13736 | -99.95865 | 35219 ft | 428 kts | 182° |
| 2026-05-08 00:36 | 24.07771 | -99.95529 | 35199 ft | 428 kts | 182° |
| 2026-05-08 00:37 | 24.01849 | -99.95203 | 35205 ft | 429 kts | 181° |
| 2026-05-08 00:38 | 23.92885 | -99.94696 | 35206 ft | 427 kts | 181° |
| 2026-05-08 00:38 | 23.86894 | -99.94382 | 35212 ft | 429 kts | 181° |
| 2026-05-08 00:39 | 23.80915 | -99.94044 | 35206 ft | 431 kts | 182° |
| 2026-05-08 00:39 | 23.74897 | -99.93706 | 35201 ft | 434 kts | 181° |
| 2026-05-08 00:40 | 23.68875 | -99.93336 | 35205 ft | 432 kts | 181° |
| 2026-05-08 00:40 | 23.62866 | -99.92992 | 35204 ft | 433 kts | 182° |
| 2026-05-08 00:41 | 23.56763 | -99.92663 | 35196 ft | 442 kts | 182° |
| 2026-05-08 00:41 | 23.50626 | -99.92325 | 35207 ft | 434 kts | 182° |
| 2026-05-08 00:42 | 23.44589 | -99.91985 | 35202 ft | 437 kts | 182° |
| 2026-05-08 00:42 | 23.38455 | -99.91640 | 35188 ft | 444 kts | 182° |
| 2026-05-08 00:43 | 23.32297 | -99.91289 | 35195 ft | 440 kts | 182° |
| 2026-05-08 00:43 | 23.26145 | -99.90936 | 35185 ft | 444 kts | 182° |
| 2026-05-08 00:44 | 23.19944 | -99.90610 | 35168 ft | 445 kts | 182° |
| 2026-05-08 00:44 | 23.13769 | -99.90269 | 35162 ft | 444 kts | 182° |
| 2026-05-08 00:45 | 23.07571 | -99.89923 | 35139 ft | 446 kts | 182° |
| 2026-05-08 00:45 | 23.01395 | -99.89579 | 35120 ft | 446 kts | 182° |
| 2026-05-08 00:46 | 22.95128 | -99.89242 | 35107 ft | 448 kts | 182° |
| 2026-05-08 00:46 | 22.88896 | -99.88893 | 35094 ft | 447 kts | 182° |
| 2026-05-08 00:47 | 22.82673 | -99.88548 | 35088 ft | 452 kts | 182° |
| 2026-05-08 00:47 | 22.76395 | -99.88197 | 35074 ft | 448 kts | 182° |
| 2026-05-08 00:48 | 22.70134 | -99.87846 | 35067 ft | 448 kts | 182° |
| 2026-05-08 00:48 | 22.63922 | -99.87511 | 35069 ft | 450 kts | 182° |
| 2026-05-08 00:49 | 22.57655 | -99.87161 | 35084 ft | 446 kts | 182° |
| 2026-05-08 00:49 | 22.51475 | -99.86815 | 35077 ft | 447 kts | 182° |
| 2026-05-08 00:50 | 22.45221 | -99.86473 | 35081 ft | 449 kts | 181° |
| 2026-05-08 00:50 | 22.39020 | -99.86126 | 35077 ft | 446 kts | 181° |
| 2026-05-08 00:51 | 22.32767 | -99.85783 | 35059 ft | 449 kts | 182° |
| 2026-05-08 00:51 | 22.26534 | -99.85440 | 35051 ft | 449 kts | 182° |
| 2026-05-08 00:52 | 22.20275 | -99.85091 | 35050 ft | 447 kts | 181° |
| 2026-05-08 00:52 | 22.14062 | -99.84755 | 35051 ft | 448 kts | 181° |
| 2026-05-08 00:53 | 22.07830 | -99.84421 | 35056 ft | 447 kts | 181° |
| 2026-05-08 00:53 | 22.01580 | -99.84081 | 35056 ft | 448 kts | 181° |
| 2026-05-08 00:54 | 21.95344 | -99.83737 | 35051 ft | 448 kts | 181° |
| 2026-05-08 00:54 | 21.89107 | -99.83394 | 35058 ft | 449 kts | 181° |
| 2026-05-08 00:55 | 21.82924 | -99.82261 | 35055 ft | 460 kts | 160° |
| 2026-05-08 00:55 | 21.80160 | -99.80458 | 35044 ft | 470 kts | 144° |
| 2026-05-08 00:55 | 21.77924 | -99.77863 | 35036 ft | 479 kts | 127° |
| 2026-05-08 00:55 | 21.76398 | -99.74661 | 35031 ft | 488 kts | 111° |
| 2026-05-08 00:56 | 21.75615 | -99.71145 | 35033 ft | 492 kts | 101° |
| 2026-05-08 00:56 | 21.75000 | -99.63787 | 35008 ft | 493 kts | 95° |
| 2026-05-08 00:57 | 21.74712 | -99.56461 | 35012 ft | 492 kts | 94° |
| 2026-05-08 00:57 | 21.74467 | -99.49107 | 34999 ft | 493 kts | 94° |
| 2026-05-08 00:58 | 21.74234 | -99.41753 | 34966 ft | 494 kts | 94° |
| 2026-05-08 00:58 | 21.74001 | -99.34423 | 34944 ft | 492 kts | 94° |
| 2026-05-08 00:59 | 21.73771 | -99.27057 | 34910 ft | 493 kts | 94° |
| 2026-05-08 00:59 | 21.73851 | -99.19701 | 34870 ft | 497 kts | 79° |
| 2026-05-08 00:59 | 21.74972 | -99.16258 | 34875 ft | 498 kts | 61° |
| 2026-05-08 01:00 | 21.77006 | -99.13253 | 34863 ft | 497 kts | 44° |
| 2026-05-08 01:00 | 21.79687 | -99.10902 | 34849 ft | 494 kts | 30° |
| 2026-05-08 01:00 | 21.82680 | -99.09128 | 34856 ft | 490 kts | 23° |
| 2026-05-08 01:01 | 21.88897 | -99.06213 | 34886 ft | 488 kts | 19° |
| 2026-05-08 01:01 | 21.95250 | -99.03523 | 34839 ft | 490 kts | 19° |
| 2026-05-08 01:02 | 22.01594 | -99.00809 | 34830 ft | 488 kts | 19° |
| 2026-05-08 01:02 | 22.07884 | -98.98104 | 34830 ft | 488 kts | 18° |
| 2026-05-08 01:03 | 22.14184 | -98.95397 | 34833 ft | 489 kts | 18° |
| 2026-05-08 01:03 | 22.20537 | -98.92663 | 34841 ft | 488 kts | 18° |
| 2026-05-08 01:04 | 22.26822 | -98.89957 | 34843 ft | 490 kts | 18° |
| 2026-05-08 01:04 | 22.33146 | -98.87229 | 34849 ft | 489 kts | 18° |
| 2026-05-08 01:05 | 22.39468 | -98.84501 | 34854 ft | 488 kts | 18° |
| 2026-05-08 01:05 | 22.45792 | -98.81770 | 34852 ft | 488 kts | 18° |
| 2026-05-08 01:06 | 22.52114 | -98.79047 | 34847 ft | 488 kts | 18° |
| 2026-05-08 01:06 | 22.58413 | -98.76324 | 34840 ft | 488 kts | 18° |
| 2026-05-08 01:07 | 22.64726 | -98.73590 | 34836 ft | 487 kts | 18° |
| 2026-05-08 01:07 | 22.71011 | -98.70864 | 34838 ft | 488 kts | 18° |
| 2026-05-08 01:08 | 22.77317 | -98.68127 | 34838 ft | 488 kts | 18° |
| 2026-05-08 01:08 | 22.83623 | -98.65387 | 34851 ft | 486 kts | 18° |
| 2026-05-08 01:09 | 22.89930 | -98.62646 | 34865 ft | 488 kts | 18° |
| 2026-05-08 01:09 | 22.96241 | -98.59901 | 34878 ft | 486 kts | 18° |
| 2026-05-08 01:10 | 23.02504 | -98.57172 | 34891 ft | 487 kts | 18° |
| 2026-05-08 01:10 | 23.08810 | -98.54421 | 34915 ft | 489 kts | 18° |
| 2026-05-08 01:11 | 23.15129 | -98.51662 | 34946 ft | 487 kts | 18° |
| 2026-05-08 01:11 | 23.21407 | -98.48926 | 34980 ft | 487 kts | 18° |
| 2026-05-08 01:12 | 23.27754 | -98.46151 | 34994 ft | 488 kts | 18° |
| 2026-05-08 01:12 | 23.34077 | -98.43374 | 34973 ft | 488 kts | 18° |
| 2026-05-08 01:13 | 23.40363 | -98.40612 | 34949 ft | 488 kts | 18° |
| 2026-05-08 01:13 | 23.46726 | -98.37824 | 34931 ft | 490 kts | 18° |
| 2026-05-08 01:14 | 23.53038 | -98.35053 | 34916 ft | 489 kts | 17° |
| 2026-05-08 01:14 | 23.59348 | -98.32285 | 34904 ft | 491 kts | 18° |
| 2026-05-08 01:15 | 23.65685 | -98.29496 | 34890 ft | 491 kts | 18° |
| 2026-05-08 01:15 | 23.72049 | -98.26692 | 34878 ft | 491 kts | 18° |
| 2026-05-08 01:16 | 23.78397 | -98.23892 | 34870 ft | 492 kts | 18° |
| 2026-05-08 01:16 | 23.84720 | -98.21098 | 34864 ft | 491 kts | 18° |
| 2026-05-08 01:17 | 23.91064 | -98.18298 | 34868 ft | 490 kts | 18° |
| 2026-05-08 01:17 | 23.97380 | -98.15507 | 34868 ft | 491 kts | 18° |
| 2026-05-08 01:18 | 24.03743 | -98.12690 | 34873 ft | 492 kts | 18° |
| 2026-05-08 01:18 | 24.10089 | -98.09873 | 34873 ft | 491 kts | 18° |
| 2026-05-08 01:19 | 24.16424 | -98.07059 | 34878 ft | 491 kts | 18° |
| 2026-05-08 01:19 | 24.22792 | -98.04225 | 34880 ft | 494 kts | 18° |
| 2026-05-08 01:20 | 24.29179 | -98.01383 | 34885 ft | 492 kts | 18° |
| 2026-05-08 01:20 | 24.35535 | -97.98555 | 34879 ft | 492 kts | 18° |
| 2026-05-08 01:21 | 24.41884 | -97.95733 | 34877 ft | 492 kts | 18° |
| 2026-05-08 01:21 | 24.48224 | -97.92905 | 34883 ft | 492 kts | 18° |
| 2026-05-08 01:22 | 24.54559 | -97.90074 | 34887 ft | 491 kts | 18° |
| 2026-05-08 01:22 | 24.60908 | -97.87233 | 34888 ft | 493 kts | 18° |
| 2026-05-08 01:23 | 24.67256 | -97.84391 | 34888 ft | 491 kts | 18° |
| 2026-05-08 01:23 | 24.73581 | -97.81559 | 34886 ft | 493 kts | 18° |
| 2026-05-08 01:24 | 24.79938 | -97.78704 | 34885 ft | 491 kts | 18° |
| 2026-05-08 01:24 | 24.86260 | -97.75861 | 34883 ft | 492 kts | 18° |
| 2026-05-08 01:25 | 24.92616 | -97.73011 | 34888 ft | 494 kts | 18° |
| 2026-05-08 01:25 | 24.99050 | -97.70298 | 34890 ft | 493 kts | 16° |
| 2026-05-08 01:26 | 25.05457 | -97.67707 | 34892 ft | 492 kts | 16° |
| 2026-05-08 01:26 | 25.11907 | -97.65085 | 34887 ft | 493 kts | 16° |
| 2026-05-08 01:27 | 25.18393 | -97.62415 | 34891 ft | 493 kts | 16° |
| 2026-05-08 01:27 | 25.24861 | -97.59745 | 34892 ft | 496 kts | 16° |
| 2026-05-08 01:28 | 25.31375 | -97.57040 | 34893 ft | 494 kts | 16° |
| 2026-05-08 01:28 | 25.37851 | -97.54348 | 34892 ft | 497 kts | 16° |
| 2026-05-08 01:29 | 25.44305 | -97.51661 | 34895 ft | 496 kts | 16° |
| 2026-05-08 01:29 | 25.50806 | -97.48947 | 34895 ft | 497 kts | 16° |
| 2026-05-08 01:30 | 25.57285 | -97.46245 | 34896 ft | 498 kts | 16° |
| 2026-05-08 01:30 | 25.63750 | -97.43547 | 34901 ft | 499 kts | 16° |
| 2026-05-08 01:31 | 25.70276 | -97.40807 | 34903 ft | 498 kts | 16° |
| 2026-05-08 01:31 | 25.76799 | -97.38072 | 34905 ft | 500 kts | 16° |
| 2026-05-08 01:32 | 25.83311 | -97.35343 | 34905 ft | 500 kts | 16° |
| 2026-05-08 01:32 | 25.89825 | -97.32611 | 34910 ft | 500 kts | 16° |
| 2026-05-08 01:33 | 25.96377 | -97.29856 | 34914 ft | 501 kts | 16° |
| 2026-05-08 01:33 | 26.02865 | -97.27121 | 34915 ft | 499 kts | 16° |
| 2026-05-08 01:34 | 26.09389 | -97.24371 | 34916 ft | 502 kts | 16° |
| 2026-05-08 01:34 | 26.15897 | -97.21629 | 34914 ft | 500 kts | 15° |
| 2026-05-08 01:35 | 26.22427 | -97.18873 | 34914 ft | 501 kts | 16° |
| 2026-05-08 01:35 | 26.28966 | -97.16110 | 34913 ft | 503 kts | 15° |
| 2026-05-08 01:36 | 26.35523 | -97.13328 | 34913 ft | 502 kts | 16° |
| 2026-05-08 01:36 | 26.42069 | -97.10551 | 34910 ft | 501 kts | 15° |
| 2026-05-08 01:37 | 26.48586 | -97.07789 | 34907 ft | 504 kts | 15° |
| 2026-05-08 01:37 | 26.55143 | -97.05003 | 34908 ft | 502 kts | 15° |
| 2026-05-08 01:38 | 26.61675 | -97.02226 | 34917 ft | 505 kts | 15° |
| 2026-05-08 01:38 | 26.68245 | -96.99427 | 34921 ft | 503 kts | 15° |
| 2026-05-08 01:39 | 26.74764 | -96.96648 | 34922 ft | 505 kts | 15° |
| 2026-05-08 01:39 | 26.81368 | -96.93828 | 34918 ft | 504 kts | 15° |
| 2026-05-08 01:40 | 26.87927 | -96.91022 | 34923 ft | 505 kts | 15° |
| 2026-05-08 01:40 | 26.94486 | -96.88210 | 34925 ft | 506 kts | 15° |
| 2026-05-08 01:41 | 27.01043 | -96.85398 | 34926 ft | 504 kts | 14° |
| 2026-05-08 01:41 | 27.07619 | -96.82577 | 34928 ft | 506 kts | 15° |
| 2026-05-08 01:42 | 27.14205 | -96.79751 | 34928 ft | 506 kts | 15° |
| 2026-05-08 01:42 | 27.20761 | -96.76929 | 34936 ft | 506 kts | 14° |
| 2026-05-08 01:43 | 27.27336 | -96.74097 | 34942 ft | 506 kts | 14° |
| 2026-05-08 01:43 | 27.33952 | -96.71246 | 34942 ft | 508 kts | 15° |
| 2026-05-08 01:44 | 27.40570 | -96.68388 | 34943 ft | 507 kts | 14° |
| 2026-05-08 01:44 | 27.47105 | -96.65560 | 34941 ft | 507 kts | 14° |
| 2026-05-08 01:45 | 27.53731 | -96.62691 | 34941 ft | 509 kts | 14° |
| 2026-05-08 01:45 | 27.60344 | -96.59818 | 34942 ft | 506 kts | 14° |
| 2026-05-08 01:46 | 27.66929 | -96.56960 | 34944 ft | 508 kts | 14° |
| 2026-05-08 01:46 | 27.73567 | -96.54085 | 34946 ft | 507 kts | 13° |
| 2026-05-08 01:46 | 27.76897 | -96.53114 | 34942 ft | 494 kts | 359° |
| 2026-05-08 01:47 | 27.80265 | -96.52921 | 34949 ft | 480 kts | 349° |
| 2026-05-08 01:47 | 27.86858 | -96.53632 | 34945 ft | 473 kts | 343° |
| 2026-05-08 01:48 | 27.96724 | -96.54874 | 34946 ft | 476 kts | 346° |
| 2026-05-08 01:48 | 28.03388 | -96.55481 | 34950 ft | 479 kts | 346° |
| 2026-05-08 01:49 | 28.09994 | -96.56042 | 34952 ft | 476 kts | 346° |
| 2026-05-08 01:49 | 28.16643 | -96.56602 | 34948 ft | 477 kts | 346° |
| 2026-05-08 01:50 | 28.23290 | -96.57175 | 34953 ft | 479 kts | 346° |
| 2026-05-08 01:50 | 28.29913 | -96.57744 | 34954 ft | 476 kts | 346° |
| 2026-05-08 01:51 | 28.36559 | -96.58320 | 34965 ft | 478 kts | 346° |
| 2026-05-08 01:51 | 28.43212 | -96.58900 | 34967 ft | 480 kts | 346° |
| 2026-05-08 01:52 | 28.49865 | -96.59475 | 34966 ft | 477 kts | 346° |
| 2026-05-08 01:52 | 28.56494 | -96.60055 | 34964 ft | 479 kts | 346° |
| 2026-05-08 01:53 | 28.63114 | -96.60630 | 34969 ft | 477 kts | 346° |
| 2026-05-08 01:53 | 28.69779 | -96.61214 | 34967 ft | 478 kts | 346° |
| 2026-05-08 01:54 | 28.76366 | -96.61787 | 34973 ft | 475 kts | 346° |
| 2026-05-08 01:54 | 28.82972 | -96.62369 | 34969 ft | 479 kts | 346° |
| 2026-05-08 01:55 | 28.89634 | -96.62955 | 34974 ft | 477 kts | 346° |
| 2026-05-08 01:55 | 28.96240 | -96.63535 | 34969 ft | 477 kts | 346° |
| 2026-05-08 01:56 | 29.02900 | -96.64124 | 34973 ft | 477 kts | 346° |
| 2026-05-08 01:56 | 29.09498 | -96.64701 | 34977 ft | 477 kts | 346° |
| 2026-05-08 01:57 | 29.16158 | -96.65292 | 34964 ft | 478 kts | 346° |
| 2026-05-08 01:57 | 29.22754 | -96.65871 | 34975 ft | 478 kts | 346° |
| 2026-05-08 01:58 | 29.29406 | -96.66462 | 34973 ft | 479 kts | 346° |
| 2026-05-08 01:58 | 29.36031 | -96.67039 | 34979 ft | 477 kts | 346° |
| 2026-05-08 01:59 | 29.42684 | -96.67628 | 34981 ft | 481 kts | 346° |
| 2026-05-08 01:59 | 29.49370 | -96.68218 | 34977 ft | 476 kts | 346° |
| 2026-05-08 02:00 | 29.55975 | -96.68801 | 34979 ft | 477 kts | 345° |
| 2026-05-08 02:00 | 29.62608 | -96.69396 | 34986 ft | 479 kts | 345° |
| 2026-05-08 02:01 | 29.69260 | -96.69986 | 34986 ft | 480 kts | 345° |
| 2026-05-08 02:01 | 29.75951 | -96.70586 | 34990 ft | 478 kts | 345° |
| 2026-05-08 02:02 | 29.82622 | -96.71190 | 34991 ft | 480 kts | 345° |
| 2026-05-08 02:02 | 29.89285 | -96.71792 | 34989 ft | 481 kts | 345° |
| 2026-05-08 02:03 | 29.95956 | -96.72390 | 34987 ft | 479 kts | 345° |
| 2026-05-08 02:03 | 30.02641 | -96.72984 | 34991 ft | 481 kts | 345° |
| 2026-05-08 02:04 | 30.09312 | -96.73577 | 34995 ft | 478 kts | 345° |
| 2026-05-08 02:04 | 30.15912 | -96.74172 | 34998 ft | 479 kts | 345° |
| 2026-05-08 02:05 | 30.22584 | -96.74780 | 34999 ft | 478 kts | 345° |
| 2026-05-08 02:05 | 30.29229 | -96.75373 | 34999 ft | 478 kts | 345° |
| 2026-05-08 02:06 | 30.35870 | -96.75968 | 35004 ft | 479 kts | 345° |
| 2026-05-08 02:06 | 30.42529 | -96.76567 | 35011 ft | 480 kts | 345° |
| 2026-05-08 02:07 | 30.49179 | -96.77163 | 35015 ft | 477 kts | 345° |
| 2026-05-08 02:07 | 30.55804 | -96.77766 | 35017 ft | 478 kts | 345° |
| 2026-05-08 02:08 | 30.62502 | -96.78378 | 35016 ft | 481 kts | 345° |
| 2026-05-08 02:08 | 30.69187 | -96.78989 | 35015 ft | 481 kts | 345° |
| 2026-05-08 02:09 | 30.75864 | -96.79593 | 35012 ft | 478 kts | 345° |
| 2026-05-08 02:09 | 30.82489 | -96.80197 | 35012 ft | 479 kts | 345° |
| 2026-05-08 02:10 | 30.89152 | -96.80808 | 35013 ft | 478 kts | 345° |
| 2026-05-08 02:10 | 30.95796 | -96.81407 | 35013 ft | 476 kts | 345° |
| 2026-05-08 02:11 | 31.02398 | -96.82014 | 35014 ft | 476 kts | 345° |
| 2026-05-08 02:11 | 31.09037 | -96.82627 | 35018 ft | 478 kts | 345° |
| 2026-05-08 02:12 | 31.15711 | -96.83254 | 35017 ft | 479 kts | 345° |
| 2026-05-08 02:12 | 31.22348 | -96.83865 | 35013 ft | 475 kts | 345° |
| 2026-05-08 02:13 | 31.28969 | -96.84473 | 35017 ft | 477 kts | 344° |
| 2026-05-08 02:13 | 31.35534 | -96.85068 | 34812 ft | 468 kts | 345° |
| 2026-05-08 02:14 | 31.38777 | -96.85352 | 34471 ft | 460 kts | 345° |
| 2026-05-08 02:14 | 31.41928 | -96.85628 | 33982 ft | 455 kts | 345° |
| 2026-05-08 02:14 | 31.45076 | -96.85914 | 33435 ft | 451 kts | 345° |
| 2026-05-08 02:14 | 31.48201 | -96.86204 | 32868 ft | 450 kts | 345° |
| 2026-05-08 02:15 | 31.51314 | -96.86491 | 32380 ft | 446 kts | 345° |
| 2026-05-08 02:15 | 31.54402 | -96.86778 | 31950 ft | 441 kts | 345° |
| 2026-05-08 02:15 | 31.57402 | -96.87057 | 31567 ft | 435 kts | 345° |
| 2026-05-08 02:15 | 31.60408 | -96.87349 | 31136 ft | 432 kts | 345° |
| 2026-05-08 02:16 | 31.63417 | -96.87644 | 30442 ft | 434 kts | 345° |
| 2026-05-08 02:16 | 31.66409 | -96.87944 | 29584 ft | 439 kts | 345° |
| 2026-05-08 02:16 | 31.69488 | -96.88257 | 28625 ft | 447 kts | 346° |
| 2026-05-08 02:16 | 31.72590 | -96.88554 | 27667 ft | 455 kts | 346° |
| 2026-05-08 02:17 | 31.75764 | -96.88837 | 26695 ft | 461 kts | 347° |
| 2026-05-08 02:17 | 31.78961 | -96.89120 | 25988 ft | 459 kts | 347° |
| 2026-05-08 02:17 | 31.82114 | -96.89400 | 25471 ft | 452 kts | 347° |
| 2026-05-08 02:17 | 31.85220 | -96.89672 | 24827 ft | 449 kts | 347° |
| 2026-05-08 02:18 | 31.88343 | -96.89953 | 24134 ft | 447 kts | 347° |
| 2026-05-08 02:18 | 31.91426 | -96.90233 | 23483 ft | 444 kts | 348° |
| 2026-05-08 02:18 | 31.94490 | -96.90512 | 22885 ft | 439 kts | 348° |
| 2026-05-08 02:18 | 31.97510 | -96.90790 | 22363 ft | 432 kts | 348° |
| 2026-05-08 02:19 | 32.00476 | -96.91065 | 21851 ft | 425 kts | 348° |
| 2026-05-08 02:19 | 32.03350 | -96.91331 | 21583 ft | 412 kts | 348° |
| 2026-05-08 02:19 | 32.06235 | -96.91599 | 20966 ft | 409 kts | 348° |
| 2026-05-08 02:19 | 32.09024 | -96.91866 | 20369 ft | 407 kts | 348° |
| 2026-05-08 02:20 | 32.11841 | -96.92137 | 19753 ft | 404 kts | 349° |
| 2026-05-08 02:20 | 32.14632 | -96.92405 | 19176 ft | 401 kts | 349° |
| 2026-05-08 02:20 | 32.17413 | -96.92668 | 18748 ft | 395 kts | 349° |
| 2026-05-08 02:20 | 32.20119 | -96.92920 | 18478 ft | 392 kts | 349° |
| 2026-05-08 02:21 | 32.22877 | -96.93182 | 17943 ft | 402 kts | 349° |
| 2026-05-08 02:21 | 32.25682 | -96.93453 | 17294 ft | 405 kts | 349° |
| 2026-05-08 02:21 | 32.28463 | -96.93717 | 16621 ft | 403 kts | 350° |
| 2026-05-08 02:21 | 32.31278 | -96.93983 | 15931 ft | 402 kts | 350° |
| 2026-05-08 02:22 | 32.34034 | -96.94242 | 15251 ft | 401 kts | 350° |
| 2026-05-08 02:22 | 32.36824 | -96.94504 | 14566 ft | 399 kts | 351° |
| 2026-05-08 02:22 | 32.39562 | -96.94761 | 13877 ft | 397 kts | 351° |
| 2026-05-08 02:22 | 32.42335 | -96.95019 | 13178 ft | 395 kts | 351° |
| 2026-05-08 02:23 | 32.45073 | -96.95186 | 12551 ft | 393 kts | 354° |
| 2026-05-08 02:23 | 32.47772 | -96.95232 | 12213 ft | 382 kts | 355° |
| 2026-05-08 02:23 | 32.50375 | -96.95229 | 11920 ft | 370 kts | 355° |
| 2026-05-08 02:23 | 32.52943 | -96.95216 | 11620 ft | 359 kts | 356° |
| 2026-05-08 02:24 | 32.55396 | -96.95203 | 11326 ft | 349 kts | 355° |
| 2026-05-08 02:24 | 32.57780 | -96.95194 | 11040 ft | 340 kts | 356° |
| 2026-05-08 02:24 | 32.60144 | -96.95188 | 10739 ft | 331 kts | 355° |
| 2026-05-08 02:24 | 32.62403 | -96.95171 | 10441 ft | 317 kts | 357° |
| 2026-05-08 02:25 | 32.64554 | -96.95013 | 10151 ft | 305 kts | 1° |
| 2026-05-08 02:25 | 32.66621 | -96.94736 | 9865 ft | 293 kts | 2° |
| 2026-05-08 02:25 | 32.68621 | -96.94434 | 9570 ft | 286 kts | 3° |
| 2026-05-08 02:25 | 32.70586 | -96.94136 | 9279 ft | 283 kts | 2° |
| 2026-05-08 02:26 | 32.72535 | -96.93848 | 8990 ft | 283 kts | 2° |
| 2026-05-08 02:26 | 32.74496 | -96.93568 | 8693 ft | 282 kts | 3° |
| 2026-05-08 02:26 | 32.76447 | -96.93303 | 8440 ft | 283 kts | 2° |
| 2026-05-08 02:26 | 32.78410 | -96.93100 | 8110 ft | 281 kts | 0° |
| 2026-05-08 02:27 | 32.80358 | -96.92999 | 7806 ft | 278 kts | 359° |
| 2026-05-08 02:27 | 32.82296 | -96.92925 | 7507 ft | 274 kts | 359° |
| 2026-05-08 02:27 | 32.84192 | -96.92863 | 7212 ft | 271 kts | 359° |
| 2026-05-08 02:27 | 32.86061 | -96.92812 | 6917 ft | 269 kts | 358° |
| 2026-05-08 02:28 | 32.87927 | -96.92765 | 6621 ft | 266 kts | 358° |
| 2026-05-08 02:28 | 32.89772 | -96.92725 | 6328 ft | 263 kts | 358° |
| 2026-05-08 02:28 | 32.91580 | -96.92694 | 6059 ft | 256 kts | 359° |
| 2026-05-08 02:28 | 32.93349 | -96.92673 | 5756 ft | 250 kts | 359° |
| 2026-05-08 02:29 | 32.95067 | -96.92660 | 5462 ft | 244 kts | 359° |
| 2026-05-08 02:29 | 32.96756 | -96.92661 | 5166 ft | 239 kts | 359° |
| 2026-05-08 02:29 | 32.98404 | -96.92677 | 4869 ft | 235 kts | 359° |
| 2026-05-08 02:29 | 33.00031 | -96.92703 | 4588 ft | 230 kts | 359° |
| 2026-05-08 02:30 | 33.01619 | -96.92742 | 4290 ft | 225 kts | 359° |
| 2026-05-08 02:30 | 33.03169 | -96.92793 | 3997 ft | 222 kts | 359° |
| 2026-05-08 02:30 | 33.04702 | -96.92856 | 3704 ft | 218 kts | 359° |
| 2026-05-08 02:30 | 33.06209 | -96.93006 | 3402 ft | 216 kts | 347° |
| 2026-05-08 02:31 | 33.07439 | -96.93938 | 3112 ft | 214 kts | 308° |
| 2026-05-08 02:31 | 33.08036 | -96.95493 | 3001 ft | 202 kts | 281° |
| 2026-05-08 02:31 | 33.08151 | -96.97114 | 3003 ft | 190 kts | 267° |
| 2026-05-08 02:31 | 33.07860 | -96.98589 | 3013 ft | 182 kts | 239° |
| 2026-05-08 02:32 | 33.07028 | -96.99743 | 3022 ft | 184 kts | 218° |
| 2026-05-08 02:32 | 33.06026 | -97.00684 | 3006 ft | 183 kts | 216° |
| 2026-05-08 02:32 | 33.05035 | -97.01617 | 3004 ft | 181 kts | 217° |
| 2026-05-08 02:32 | 33.03995 | -97.02484 | 3000 ft | 180 kts | 202° |
| 2026-05-08 02:33 | 33.02783 | -97.02730 | 2971 ft | 177 kts | 174° |
| 2026-05-08 02:33 | 33.01555 | -97.02608 | 2716 ft | 178 kts | 174° |
| 2026-05-08 02:33 | 33.00312 | -97.02548 | 2424 ft | 174 kts | 178° |
| 2026-05-08 02:33 | 32.99134 | -97.02542 | 2182 ft | 166 kts | 178° |
| 2026-05-08 02:34 | 32.97969 | -97.02567 | 1780 ft | 169 kts | 180° |
| 2026-05-08 02:34 | 32.96789 | -97.02574 | 1434 ft | 168 kts | 179° |
| 2026-05-08 02:34 | 32.95666 | -97.02586 | 1289 ft | 153 kts | 180° |
| 2026-05-08 02:34 | 32.94663 | -97.02583 | 1158 ft | 136 kts | 178° |
| 2026-05-08 02:35 | 32.93697 | -97.02583 | 992 ft | 141 kts | 179° |
| 2026-05-08 02:35 | 32.92699 | -97.02584 | 860 ft | 137 kts | 180° |
| 2026-05-08 02:35 | 32.91744 | -97.02595 | 648 ft | 137 kts | 180° |
| 2026-05-08 02:35 | 32.90823 | -97.02602 | 562 ft | 117 kts | 180° |
| 2026-05-08 02:36 | 32.90175 | -97.02605 | 561 ft | 57 kts | 180° |
| 2026-05-08 02:36 | 32.89907 | -97.02695 | 564 ft | 32 kts | 212° |
| 2026-05-08 02:36 | 32.89814 | -97.02760 | 565 ft | 0 kts | 210° |
| 2026-05-08 02:36 | 32.89809 | -97.02763 | 565 ft | 1 kts | 210° |
| 2026-05-08 02:37 | 32.89799 | -97.02769 | 565 ft | 1 kts | 210° |
| 2026-05-08 02:37 | 32.89793 | -97.02773 | 565 ft | 0 kts | 210° |
| 2026-05-08 02:37 | 32.89782 | -97.02781 | 565 ft | 4 kts | 211° |
| 2026-05-08 02:37 | 32.89752 | -97.02800 | 566 ft | 7 kts | 197° |
| 2026-05-08 02:38 | 32.89668 | -97.02803 | 566 ft | 16 kts | 181° |
| 2026-05-08 02:38 | 32.89548 | -97.02804 | 566 ft | 16 kts | 180° |
| 2026-05-08 02:38 | 32.89446 | -97.02805 | 565 ft | 13 kts | 180° |
| 2026-05-08 02:38 | 32.89395 | -97.02826 | 565 ft | 5 kts | 262° |
| 2026-05-08 02:39 | 32.89394 | -97.02893 | 566 ft | 12 kts | 272° |
| 2026-05-08 02:39 | 32.89395 | -97.02994 | 570 ft | 9 kts | 269° |
| 2026-05-08 02:39 | 32.89394 | -97.03059 | 572 ft | 9 kts | 270° |
| 2026-05-08 02:39 | 32.89394 | -97.03134 | 574 ft | 7 kts | 269° |
| 2026-05-08 02:40 | 32.89394 | -97.03210 | 575 ft | 10 kts | 271° |
| 2026-05-08 02:40 | 32.89394 | -97.03279 | 576 ft | 5 kts | 269° |
| 2026-05-08 02:40 | 32.89384 | -97.03311 | 576 ft | 5 kts | 220° |
| 2026-05-08 02:40 | 32.89321 | -97.03321 | 576 ft | 12 kts | 179° |
| 2026-05-08 02:41 | 32.89242 | -97.03319 | 576 ft | 9 kts | 179° |
| 2026-05-08 02:41 | 32.89187 | -97.03320 | 576 ft | 4 kts | 205° |
| 2026-05-08 02:41 | 32.89175 | -97.03358 | 577 ft | 5 kts | 267° |
| 2026-05-08 02:41 | 32.89174 | -97.03397 | 577 ft | 4 kts | 268° |
| 2026-05-08 02:42 | 32.89163 | -97.03426 | 577 ft | 5 kts | 220° |
| 2026-05-08 02:42 | 32.89091 | -97.03436 | 575 ft | 12 kts | 175° |
| 2026-05-08 02:42 | 32.89009 | -97.03438 | 574 ft | 10 kts | 200° |
| 2026-05-08 02:42 | 32.88981 | -97.03494 | 573 ft | 6 kts | 277° |
| 2026-05-08 02:43 | 32.88986 | -97.03520 | 573 ft | 0 kts | 288° |
| 2026-05-08 02:43 | 32.88986 | -97.03521 | 573 ft | 0 kts | 288° |